Time;durP1;ratioP1;P1;durP2;ratioP2;P2;SDS_P1;SDS_P2;PMS_P1;PMS_P2;Temp;Humidity;BMP_temperature;BMP_pressure;BME280_temperature;BME280_humidity;BME280_pressure;Samples;Min_cycle;Max_cycle;Signal;HPM_P1;HPM_P2
2022/11/06 00:00:38;;;;;;;5.47;3.80;;;9.90;98.40;;;;;;5015064;28;20234;-78
2022/11/06 00:03:08;;;;;;;8.23;4.20;;;9.80;98.70;;;;;;5014739;28;20214;-78
2022/11/06 00:08:32;;;;;;;10.53;4.57;;;9.80;98.70;;;;;;5014948;28;20197;-72
2022/11/06 00:11:00;;;;;;;14.97;4.87;;;9.80;98.60;;;;;;5014369;28;20226;-78
2022/11/06 00:13:31;;;;;;;10.40;4.90;;;9.80;98.50;;;;;;5015024;28;20201;-77
2022/11/06 00:16:03;;;;;;;12.37;5.87;;;9.80;98.40;;;;;;5014599;28;20256;-75
2022/11/06 00:18:33;;;;;;;10.50;4.63;;;9.80;98.30;;;;;;5014890;28;20196;-75
2022/11/06 00:21:07;;;;;;;9.53;4.93;;;9.80;98.30;;;;;;5014837;28;20273;-75
2022/11/06 00:23:36;;;;;;;9.70;4.60;;;9.80;98.10;;;;;;5014838;28;20640;-74
2022/11/06 00:26:06;;;;;;;8.63;5.10;;;9.80;98.10;;;;;;5014085;28;20257;-75
2022/11/06 00:28:35;;;;;;;9.83;5.60;;;9.80;98.10;;;;;;5014599;28;20200;-76
2022/11/06 00:31:05;;;;;;;9.60;4.90;;;9.80;98.00;;;;;;5008957;28;20573;-77
2022/11/06 00:33:36;;;;;;;11.83;4.70;;;9.80;98.00;;;;;;5011612;28;20210;-74
2022/11/06 00:36:05;;;;;;;15.17;4.47;;;9.80;98.00;;;;;;5013800;28;20270;-76
2022/11/06 00:38:34;;;;;;;6.60;4.27;;;9.60;98.00;;;;;;5014069;28;20551;-75
2022/11/06 00:41:03;;;;;;;11.90;4.83;;;9.60;98.60;;;;;;5012876;28;20211;-77
2022/11/06 00:43:32;;;;;;;7.67;4.00;;;9.50;98.40;;;;;;5012000;28;20572;-76
2022/11/06 00:46:02;;;;;;;7.90;4.30;;;9.60;98.50;;;;;;5015222;28;20195;-77
2022/11/06 00:48:30;;;;;;;10.90;4.53;;;9.60;98.40;;;;;;5015229;28;20650;-75
2022/11/06 00:51:03;;;;;;;8.20;4.20;;;9.60;98.40;;;;;;5015141;28;20691;-74
2022/11/06 00:53:32;;;;;;;7.83;4.17;;;9.60;98.40;;;;;;5014885;28;20311;-76
2022/11/06 00:56:08;;;;;;;9.40;4.57;;;9.60;98.30;;;;;;5014757;28;20305;-75
2022/11/06 00:58:37;;;;;;;8.37;3.90;;;9.50;98.20;;;;;;5014893;28;20229;-76
2022/11/06 01:01:07;;;;;;;7.30;4.40;;;9.50;98.30;;;;;;5014999;28;20580;-76
2022/11/06 01:03:35;;;;;;;25.37;13.27;;;9.50;98.40;;;;;;5014716;28;20209;-76
2022/11/06 01:06:07;;;;;;;19.87;11.43;;;9.50;98.40;;;;;;5014949;28;20211;-74
2022/11/06 01:08:36;;;;;;;8.07;4.60;;;9.50;98.30;;;;;;5014873;28;20207;-75
2022/11/06 01:11:09;;;;;;;9.57;5.00;;;9.50;98.60;;;;;;5014718;28;20195;-77
2022/11/06 01:13:38;;;;;;;9.70;5.10;;;9.50;98.30;;;;;;5014114;28;20199;-75
2022/11/06 01:16:09;;;;;;;6.87;4.47;;;9.60;98.20;;;;;;5014824;28;20269;-75
2022/11/06 01:18:38;;;;;;;11.37;5.20;;;9.60;97.90;;;;;;5014628;28;20199;-75
2022/11/06 01:21:10;;;;;;;8.80;5.10;;;9.60;97.80;;;;;;5014928;28;20283;-77
2022/11/06 01:23:38;;;;;;;8.90;4.97;;;9.60;97.80;;;;;;5014462;28;20210;-76
2022/11/06 01:26:08;;;;;;;14.50;6.83;;;9.50;97.60;;;;;;5014529;28;20210;-75
2022/11/06 01:28:37;;;;;;;12.90;6.57;;;9.50;97.60;;;;;;5014761;28;20203;-76
2022/11/06 01:31:07;;;;;;;11.87;5.57;;;9.50;97.40;;;;;;5014429;28;20191;-77
2022/11/06 01:33:36;;;;;;;14.70;7.53;;;9.50;97.30;;;;;;5014423;28;20273;-77
2022/11/06 01:36:05;;;;;;;10.13;6.63;;;9.50;97.30;;;;;;5014564;28;20254;-76
2022/11/06 01:38:34;;;;;;;14.57;7.33;;;9.40;97.20;;;;;;5014588;28;20677;-77
2022/11/06 01:41:03;;;;;;;11.30;5.50;;;9.40;97.10;;;;;;5012987;28;20676;-74
2022/11/06 01:43:46;;;;;;;13.00;5.50;;;9.40;97.10;;;;;;5013016;28;20199;-75
2022/11/06 01:46:15;;;;;;;13.73;5.50;;;9.30;97.00;;;;;;5014513;28;20210;-75
2022/11/06 01:48:54;;;;;;;13.53;6.10;;;9.30;97.30;;;;;;5014312;28;20195;-75
2022/11/06 01:51:26;;;;;;;11.77;6.00;;;9.30;97.40;;;;;;5014204;28;20261;-76
2022/11/06 01:53:56;;;;;;;12.77;6.83;;;9.30;97.50;;;;;;5013833;28;20235;-75
2022/11/06 01:56:26;;;;;;;10.07;5.13;;;9.30;97.30;;;;;;5013881;28;20229;-76
2022/11/06 01:58:55;;;;;;;9.33;5.20;;;9.20;97.20;;;;;;5014006;28;20191;-76
2022/11/06 02:01:24;;;;;;;7.67;4.90;;;9.20;97.20;;;;;;5013247;28;20562;-75
2022/11/06 02:03:59;;;;;;;13.60;5.37;;;9.20;97.10;;;;;;5012661;28;20681;-76
2022/11/06 02:06:28;;;;;;;12.37;5.60;;;9.20;97.30;;;;;;5013995;28;20669;-74
2022/11/06 02:08:59;;;;;;;14.13;6.87;;;9.10;97.30;;;;;;5013959;28;20195;-75
2022/11/06 02:11:27;;;;;;;9.73;6.77;;;9.10;97.40;;;;;;5012613;28;20329;-75
2022/11/06 02:14:02;;;;;;;8.13;5.93;;;9.10;97.40;;;;;;5014742;28;20729;-76
2022/11/06 02:16:44;;;;;;;10.53;5.67;;;9.10;97.40;;;;;;5014339;28;20237;-76
2022/11/06 02:19:35;;;;;;;11.20;5.50;;;9.10;97.50;;;;;;5019974;28;20202;-77
2022/11/06 02:22:15;;;;;;;8.23;4.93;;;9.10;97.60;;;;;;5017734;28;20187;-74
2022/11/06 02:25:06;;;;;;;8.27;5.40;;;9.00;97.40;;;;;;5014443;28;20187;-75
2022/11/06 02:27:36;;;;;;;9.80;4.57;;;9.00;97.30;;;;;;5013589;28;20202;-76
2022/11/06 02:30:07;;;;;;;11.27;5.47;;;9.00;97.50;;;;;;5013634;28;20195;-76
2022/11/06 02:32:40;;;;;;;9.53;5.50;;;9.00;97.50;;;;;;5013490;28;20196;-73
2022/11/06 02:35:18;;;;;;;7.57;5.20;;;9.00;97.70;;;;;;5013354;28;20198;-76
2022/11/06 02:37:49;;;;;;;7.80;4.90;;;9.00;97.90;;;;;;5013468;28;20735;-76
2022/11/06 02:40:19;;;;;;;8.27;4.87;;;8.90;98.00;;;;;;5013468;28;20196;-76
2022/11/06 02:42:53;;;;;;;11.90;5.30;;;9.00;98.20;;;;;;5013378;28;20661;-75
2022/11/06 02:45:23;;;;;;;11.63;5.33;;;9.00;98.40;;;;;;5013712;28;20275;-75
2022/11/06 02:47:54;;;;;;;11.57;5.30;;;9.00;99.00;;;;;;5014021;28;20199;-74
2022/11/06 02:50:27;;;;;;;12.97;5.27;;;9.00;98.90;;;;;;5014519;28;20658;-69
2022/11/06 02:52:58;;;;;;;8.23;4.87;;;9.00;99.00;;;;;;5012917;28;20222;-73
2022/11/06 02:55:31;;;;;;;9.30;4.77;;;9.00;99.10;;;;;;5013265;28;20288;-75
2022/11/06 02:58:06;;;;;;;7.77;5.20;;;9.00;99.30;;;;;;5013108;28;20681;-69
2022/11/06 03:00:37;;;;;;;7.73;5.00;;;9.00;99.50;;;;;;5013356;28;20244;-71
2022/11/06 03:03:10;;;;;;;7.90;4.93;;;9.00;99.40;;;;;;5013215;28;20203;-73
2022/11/06 03:05:46;;;;;;;14.07;5.43;;;9.00;99.40;;;;;;5013262;28;20229;-74
2022/11/06 03:08:19;;;;;;;10.60;5.23;;;9.00;99.50;;;;;;5013065;28;20651;-73
2022/11/06 03:10:58;;;;;;;6.93;4.90;;;9.00;99.50;;;;;;5013149;28;20206;-75
2022/11/06 03:13:37;;;;;;;11.63;5.73;;;9.00;99.60;;;;;;5011838;28;20214;-70
2022/11/06 03:16:15;;;;;;;10.60;5.43;;;9.00;99.70;;;;;;5012881;28;20720;-72
2022/11/06 03:18:53;;;;;;;10.57;5.20;;;9.00;99.60;;;;;;5013223;28;20209;-70
2022/11/06 03:21:26;;;;;;;6.83;4.80;;;9.00;99.70;;;;;;5012953;28;20253;-68
2022/11/06 03:23:58;;;;;;;12.57;5.63;;;8.90;99.80;;;;;;5012744;28;20731;-70
2022/11/06 03:26:32;;;;;;;8.47;4.83;;;9.00;99.80;;;;;;5012648;28;20627;-70
2022/11/06 03:29:10;;;;;;;10.10;4.90;;;9.00;99.80;;;;;;5012796;28;20591;-72
2022/11/06 03:31:51;;;;;;;9.60;5.47;;;8.90;99.90;;;;;;5015296;28;20201;-71
2022/11/06 03:34:28;;;;;;;10.93;5.57;;;8.90;99.90;;;;;;5016592;28;20203;-71
2022/11/06 03:37:02;;;;;;;9.57;5.90;;;8.90;99.90;;;;;;5016376;28;20689;-71
2022/11/06 03:39:35;;;;;;;12.27;7.50;;;8.90;99.90;;;;;;5016420;28;20226;-71
2022/11/06 03:42:07;;;;;;;9.57;5.83;;;8.90;99.90;;;;;;5016414;28;20206;-69
2022/11/06 03:44:41;;;;;;;12.33;6.00;;;8.90;99.90;;;;;;5016729;28;20247;-69
2022/11/06 03:47:17;;;;;;;12.53;6.60;;;8.90;99.90;;;;;;5016569;28;20609;-71
2022/11/06 03:49:58;;;;;;;12.13;5.93;;;8.90;99.90;;;;;;5016330;28;20202;-70
2022/11/06 03:52:32;;;;;;;8.57;5.23;;;8.90;99.90;;;;;;5016236;28;20274;-70
2022/11/06 03:55:04;;;;;;;15.43;6.60;;;9.00;99.90;;;;;;5001220;28;20265;-75
2022/11/06 03:57:39;;;;;;;10.80;6.47;;;9.00;99.90;;;;;;5015267;28;20273;-70
2022/11/06 04:00:11;;;;;;;9.13;6.47;;;9.00;99.90;;;;;;5016140;28;20277;-73
2022/11/06 04:02:46;;;;;;;8.30;6.03;;;9.00;99.90;;;;;;5016049;28;20197;-72
2022/11/06 04:05:20;;;;;;;13.83;6.13;;;8.90;99.90;;;;;;5016039;28;20202;-77
2022/11/06 04:16:18;;;;;;;9.97;5.87;;;9.00;99.90;;;;;;5015746;28;20298;-70
2022/11/06 04:18:46;;;;;;;16.67;7.03;;;9.00;99.90;;;;;;5015899;28;20623;-73
2022/11/06 04:21:26;;;;;;;14.00;6.90;;;9.00;99.90;;;;;;5015642;28;20653;-72
2022/11/06 04:27:03;;;;;;;12.17;6.57;;;9.00;99.90;;;;;;5014846;28;20222;-71
2022/11/06 04:29:43;;;;;;;11.60;7.97;;;9.00;99.90;;;;;;4999943;28;20203;-72
2022/11/06 04:32:21;;;;;;;9.97;6.83;;;9.00;99.80;;;;;;5015922;28;20209;-68
2022/11/06 04:34:57;;;;;;;10.43;7.03;;;9.00;99.80;;;;;;5015602;28;20210;-72
2022/11/06 04:37:32;;;;;;;8.80;6.20;;;9.00;99.70;;;;;;5015512;28;20219;-70
2022/11/06 04:40:07;;;;;;;12.07;6.73;;;9.00;99.40;;;;;;5015503;28;20198;-73
2022/11/06 04:42:42;;;;;;;10.80;7.00;;;9.00;99.20;;;;;;5015884;28;20203;-73
2022/11/06 04:45:14;;;;;;;15.90;8.30;;;9.00;99.10;;;;;;5015867;28;20215;-75
2022/11/06 04:47:45;;;;;;;10.63;7.30;;;9.00;99.00;;;;;;5015276;28;20277;-71
2022/11/06 04:50:17;;;;;;;11.53;7.20;;;8.90;99.00;;;;;;5015281;28;20222;-75
2022/11/06 04:52:47;;;;;;;14.90;7.23;;;8.90;99.00;;;;;;5014857;28;20349;-75
2022/11/06 04:55:15;;;;;;;10.97;7.77;;;8.80;98.90;;;;;;5014373;28;20184;-77
2022/11/06 04:57:43;;;;;;;10.47;7.43;;;8.80;99.10;;;;;;5014780;28;20234;-74
2022/11/06 05:00:14;;;;;;;13.53;6.93;;;8.70;99.20;;;;;;5014274;28;20199;-69
2022/11/06 05:02:44;;;;;;;12.90;7.80;;;8.70;99.20;;;;;;5013439;28;20206;-72
2022/11/06 05:05:12;;;;;;;11.07;7.97;;;8.70;99.20;;;;;;4952977;29;20264;-79
2022/11/06 05:07:41;;;;;;;14.63;7.47;;;8.60;99.30;;;;;;4953623;29;20217;-69
2022/11/06 05:10:10;;;;;;;10.03;6.93;;;8.60;99.40;;;;;;4953490;28;20197;-80
2022/11/06 05:12:38;;;;;;;11.20;7.90;;;8.60;99.40;;;;;;4936401;29;20244;-74
2022/11/06 05:15:07;;;;;;;12.50;7.97;;;8.60;99.40;;;;;;4953536;29;20255;-77
2022/11/06 05:17:36;;;;;;;10.83;7.77;;;8.60;99.40;;;;;;4954233;29;20232;-75
2022/11/06 05:20:07;;;;;;;14.10;6.83;;;8.60;99.40;;;;;;4953798;29;20308;-74
2022/11/06 05:22:57;;;;;;;12.77;7.90;;;8.60;99.40;;;;;;4963469;28;20203;-78
2022/11/06 05:25:27;;;;;;;12.00;7.77;;;8.50;99.60;;;;;;5014382;28;20199;-74
2022/11/06 05:27:56;;;;;;;10.07;7.37;;;8.50;99.90;;;;;;5014203;28;20188;-79
2022/11/06 05:30:24;;;;;;;9.73;7.37;;;8.60;99.90;;;;;;5014442;28;20218;-75
2022/11/06 05:32:53;;;;;;;13.57;8.50;;;8.60;99.70;;;;;;5014362;28;20203;-73
2022/11/06 05:35:23;;;;;;;12.17;8.90;;;8.50;99.60;;;;;;5014635;28;20568;-77
2022/11/06 05:37:51;;;;;;;15.43;9.13;;;8.50;99.80;;;;;;5014620;28;20262;-72
2022/11/06 05:40:20;;;;;;;15.10;8.70;;;8.50;99.90;;;;;;5014764;28;20214;-78
2022/11/06 05:42:48;;;;;;;15.90;8.87;;;8.50;99.90;;;;;;5014284;28;20671;-74
2022/11/06 05:45:16;;;;;;;15.90;9.13;;;8.50;99.90;;;;;;5014450;28;20215;-76
2022/11/06 05:47:45;;;;;;;13.97;8.63;;;8.50;99.90;;;;;;5014107;28;20216;-70
2022/11/06 05:50:13;;;;;;;13.17;9.77;;;8.40;99.90;;;;;;5016157;28;20227;-79
2022/11/06 05:52:43;;;;;;;16.03;9.63;;;8.40;99.90;;;;;;5023129;28;20209;-71
2022/11/06 05:55:11;;;;;;;14.77;9.07;;;8.40;99.90;;;;;;5023517;28;20233;-79
2022/11/06 05:57:42;;;;;;;17.67;10.70;;;8.40;99.90;;;;;;5015065;28;20330;-79
2022/11/06 06:00:12;;;;;;;15.50;9.23;;;8.40;99.90;;;;;;5014028;28;20669;-75
2022/11/06 06:02:42;;;;;;;20.47;10.57;;;8.40;99.90;;;;;;5012680;28;20206;-79
2022/11/06 06:05:11;;;;;;;13.70;9.20;;;8.40;99.90;;;;;;5014129;28;20222;-70
2022/11/06 06:07:40;;;;;;;10.63;9.17;;;8.40;99.90;;;;;;5013969;28;20202;-71
2022/11/06 06:10:11;;;;;;;17.37;10.07;;;8.40;99.90;;;;;;5014524;28;20191;-76
2022/11/06 06:12:39;;;;;;;15.33;9.43;;;8.40;99.90;;;;;;5015122;28;20667;-74
2022/11/06 06:15:08;;;;;;;19.13;9.67;;;8.40;99.90;;;;;;5014186;28;20196;-76
2022/11/06 06:17:36;;;;;;;11.30;9.07;;;8.30;99.90;;;;;;5013512;28;20792;-71
2022/11/06 06:20:06;;;;;;;11.87;10.13;;;8.40;99.90;;;;;;5013722;28;20199;-72
2022/11/06 06:22:34;;;;;;;15.43;10.13;;;8.40;99.80;;;;;;5013520;28;20226;-68
2022/11/06 06:25:02;;;;;;;14.23;9.87;;;8.40;99.60;;;;;;5013349;28;20206;-73
2022/11/06 06:27:32;;;;;;;15.03;9.67;;;8.50;99.50;;;;;;5013133;28;20661;-70
2022/11/06 06:30:01;;;;;;;13.03;9.57;;;8.50;99.30;;;;;;5013224;28;20198;-73
2022/11/06 06:32:29;;;;;;;18.93;10.03;;;8.50;99.30;;;;;;5013153;28;20692;-75
2022/11/06 06:34:57;;;;;;;13.57;10.57;;;8.60;99.00;;;;;;5013204;28;20665;-69
2022/11/06 06:37:26;;;;;;;15.43;9.60;;;8.50;98.80;;;;;;5013193;28;20210;-72
2022/11/06 06:39:54;;;;;;;14.60;10.37;;;8.50;98.80;;;;;;5013007;28;20219;-74
2022/11/06 06:42:23;;;;;;;13.27;10.57;;;8.40;98.90;;;;;;5013224;28;20214;-68
2022/11/06 06:44:58;;;;;;;17.57;10.77;;;8.40;98.90;;;;;;5011774;28;20289;-69
2022/11/06 06:47:27;;;;;;;12.63;9.23;;;8.40;99.00;;;;;;5013467;28;20199;-70
2022/11/06 06:49:55;;;;;;;13.90;9.60;;;8.40;99.00;;;;;;5013047;28;20681;-68
2022/11/06 06:52:24;;;;;;;15.47;10.93;;;8.40;99.00;;;;;;5012839;28;20191;-70
2022/11/06 06:54:52;;;;;;;14.80;10.73;;;8.40;98.90;;;;;;5012833;28;20246;-75
2022/11/06 06:57:20;;;;;;;15.57;9.63;;;8.50;98.80;;;;;;5012914;28;20223;-73
2022/11/06 06:59:49;;;;;;;10.37;9.07;;;8.50;98.70;;;;;;5013063;28;20241;-70
2022/11/06 07:02:18;;;;;;;15.30;10.23;;;8.60;98.60;;;;;;5012975;28;20206;-71
2022/11/06 07:04:47;;;;;;;14.30;9.93;;;8.60;98.30;;;;;;5014529;28;20241;-71
2022/11/06 07:07:15;;;;;;;13.97;10.07;;;8.60;98.10;;;;;;5017280;28;20198;-69
2022/11/06 07:09:43;;;;;;;13.07;9.37;;;8.60;98.00;;;;;;5017427;28;20214;-75
2022/11/06 07:12:12;;;;;;;14.17;9.43;;;8.70;98.20;;;;;;5017214;28;20195;-70
2022/11/06 07:14:40;;;;;;;14.03;10.10;;;8.90;97.80;;;;;;5016878;28;20290;-74
2022/11/06 07:17:08;;;;;;;13.70;9.47;;;9.00;97.40;;;;;;5016744;28;20191;-70
2022/11/06 07:19:38;;;;;;;13.50;10.47;;;9.10;97.60;;;;;;5016696;28;20199;-67
2022/11/06 07:22:06;;;;;;;12.97;9.40;;;9.30;96.80;;;;;;5016600;28;20191;-75
2022/11/06 07:24:35;;;;;;;10.60;8.77;;;9.50;96.60;;;;;;5016817;28;20203;-69
2022/11/06 07:27:03;;;;;;;9.00;8.00;;;9.70;95.80;;;;;;5016459;28;20222;-76
2022/11/06 07:29:31;;;;;;;9.63;8.13;;;9.80;95.20;;;;;;5016495;28;20199;-74
2022/11/06 07:32:00;;;;;;;10.33;8.70;;;10.00;94.90;;;;;;5016563;28;20211;-72
2022/11/06 07:34:28;;;;;;;11.10;8.37;;;10.10;93.90;;;;;;5016475;28;20551;-76
2022/11/06 07:36:58;;;;;;;10.10;7.90;;;10.10;93.60;;;;;;5016319;28;20202;-70
2022/11/06 07:39:30;;;;;;;9.57;7.93;;;10.20;93.30;;;;;;5016466;28;20225;-73
2022/11/06 07:41:58;;;;;;;11.27;7.37;;;10.30;93.00;;;;;;5016227;28;20614;-72
2022/11/06 07:44:33;;;;;;;12.07;8.60;;;10.40;92.40;;;;;;5015125;28;20212;-69
2022/11/06 07:47:02;;;;;;;8.67;7.73;;;10.50;92.10;;;;;;5016194;28;20543;-77
2022/11/06 07:49:30;;;;;;;10.13;7.90;;;10.40;91.70;;;;;;5016573;28;20210;-69
2022/11/06 07:52:00;;;;;;;11.40;8.40;;;10.50;91.50;;;;;;5016334;28;20191;-72
2022/11/06 07:54:28;;;;;;;12.93;7.97;;;10.40;91.40;;;;;;5016234;28;20239;-74
2022/11/06 07:56:56;;;;;;;12.40;8.77;;;10.50;91.50;;;;;;5016220;28;20203;-73
2022/11/06 07:59:25;;;;;;;13.53;7.97;;;10.60;91.40;;;;;;5016268;28;20223;-76
2022/11/06 08:01:53;;;;;;;9.70;7.73;;;10.60;91.10;;;;;;5016284;28;20200;-70
2022/11/06 08:04:22;;;;;;;11.63;7.27;;;10.60;91.30;;;;;;5015943;28;20195;-71
2022/11/06 08:06:50;;;;;;;9.53;6.80;;;10.70;91.30;;;;;;5014577;28;20572;-73
2022/11/06 08:09:20;;;;;;;13.97;8.00;;;10.80;91.50;;;;;;5015729;28;20188;-70
2022/11/06 08:11:49;;;;;;;8.63;6.93;;;10.80;91.20;;;;;;5015865;28;20207;-71
2022/11/06 08:14:17;;;;;;;8.87;6.57;;;10.80;91.20;;;;;;5015561;28;20195;-71
2022/11/06 08:16:45;;;;;;;9.27;7.10;;;10.80;91.10;;;;;;5014823;28;20195;-68
2022/11/06 08:19:14;;;;;;;10.57;7.00;;;10.80;91.20;;;;;;5015600;28;20234;-70
2022/11/06 08:21:42;;;;;;;9.37;6.17;;;10.80;91.40;;;;;;5015539;28;20278;-70
2022/11/06 08:24:11;;;;;;;6.70;6.07;;;10.90;91.40;;;;;;5015493;28;20563;-70
2022/11/06 08:26:43;;;;;;;10.20;7.23;;;10.90;91.40;;;;;;5015482;28;20199;-71
2022/11/06 08:29:12;;;;;;;7.70;5.93;;;11.00;91.50;;;;;;5015453;28;20274;-72
2022/11/06 08:31:40;;;;;;;11.17;7.37;;;11.00;91.40;;;;;;5015393;28;20195;-75
2022/11/06 08:34:08;;;;;;;9.67;6.17;;;11.10;91.40;;;;;;5015516;28;20188;-77
2022/11/06 08:36:39;;;;;;;12.13;6.60;;;11.10;91.00;;;;;;5014317;28;20249;-75
2022/11/06 08:39:07;;;;;;;7.87;6.70;;;11.10;90.90;;;;;;5014665;28;20223;-69
2022/11/06 08:41:35;;;;;;;10.73;7.00;;;11.10;91.10;;;;;;5015630;28;20202;-78
2022/11/06 08:44:05;;;;;;;11.47;7.10;;;11.20;90.80;;;;;;5013956;28;20209;-76
2022/11/06 08:46:34;;;;;;;12.57;6.97;;;11.20;90.80;;;;;;5015221;28;20223;-76
2022/11/06 08:49:02;;;;;;;10.97;6.63;;;11.30;90.90;;;;;;5015223;28;20192;-72
2022/11/06 08:51:31;;;;;;;35.43;22.90;;;11.40;90.60;;;;;;5015120;28;20268;-69
2022/11/06 08:53:59;;;;;;;9.40;7.17;;;11.40;90.50;;;;;;5013282;28;20224;-70
2022/11/06 08:56:27;;;;;;;9.93;6.80;;;11.50;90.10;;;;;;5014926;28;20652;-71
2022/11/06 08:58:56;;;;;;;9.73;6.70;;;11.50;89.10;;;;;;5014713;28;20569;-75
2022/11/06 09:01:25;;;;;;;9.67;6.50;;;11.50;87.40;;;;;;5014962;28;20196;-75
2022/11/06 09:03:54;;;;;;;11.03;6.83;;;11.50;87.70;;;;;;5014956;28;20239;-71
2022/11/06 09:06:22;;;;;;;10.00;6.83;;;11.60;87.50;;;;;;5014952;28;20195;-73
2022/11/06 09:08:50;;;;;;;8.50;6.10;;;11.60;86.80;;;;;;5014960;28;20272;-73
2022/11/06 09:11:19;;;;;;;6.30;5.70;;;11.70;86.10;;;;;;5015036;28;20209;-69
2022/11/06 09:13:47;;;;;;;6.33;5.70;;;11.80;85.60;;;;;;5013561;28;20580;-81
2022/11/06 09:16:15;;;;;;;8.57;5.60;;;11.80;84.90;;;;;;5014763;28;20202;-77
2022/11/06 09:18:45;;;;;;;8.83;5.40;;;11.90;83.40;;;;;;5014894;28;20217;-76
2022/11/06 09:21:14;;;;;;;6.70;5.40;;;12.00;83.50;;;;;;5014597;28;20231;-74
2022/11/06 09:23:43;;;;;;;6.57;5.70;;;12.10;81.60;;;;;;5014934;28;20256;-78
2022/11/06 09:26:11;;;;;;;10.57;5.97;;;12.20;82.10;;;;;;5014767;28;20216;-77
2022/11/06 09:28:40;;;;;;;9.43;5.70;;;12.30;81.60;;;;;;5013295;28;20209;-76
2022/11/06 09:31:09;;;;;;;7.50;6.00;;;12.50;80.90;;;;;;5014630;28;20204;-77
2022/11/06 09:33:37;;;;;;;10.37;5.63;;;12.60;80.00;;;;;;5013034;28;20208;-75
2022/11/06 09:36:08;;;;;;;7.40;5.43;;;12.60;80.00;;;;;;5014358;28;20197;-68
2022/11/06 09:38:36;;;;;;;8.33;5.33;;;12.80;79.00;;;;;;5014363;28;20202;-77
2022/11/06 09:41:05;;;;;;;9.27;5.67;;;12.90;78.20;;;;;;5014248;28;20272;-78
2022/11/06 09:43:52;;;;;;;7.43;5.50;;;12.90;77.30;;;;;;5014186;28;20225;-74
2022/11/06 09:46:40;;;;;;;9.43;5.30;;;13.00;76.20;;;;;;5014327;28;20206;-76
2022/11/06 09:49:18;;;;;;;10.83;5.27;;;13.10;76.80;;;;;;5014421;28;20203;-70
2022/11/06 09:51:52;;;;;;;8.00;5.67;;;13.20;76.30;;;;;;5014143;28;20312;-73
2022/11/06 09:54:25;;;;;;;7.80;5.60;;;13.40;75.90;;;;;;5013982;28;20253;-70
2022/11/06 09:57:01;;;;;;;15.80;7.73;;;13.60;74.90;;;;;;5014452;28;20202;-77
2022/11/06 09:59:34;;;;;;;6.97;5.03;;;13.80;74.90;;;;;;5018647;28;20222;-78
2022/11/06 10:02:04;;;;;;;23.93;9.80;;;13.90;72.50;;;;;;5020976;28;20205;-77
2022/11/06 10:04:41;;;;;;;9.40;4.70;;;14.00;71.70;;;;;;5017014;28;20277;-75
2022/11/06 10:07:23;;;;;;;8.83;4.57;;;14.20;69.70;;;;;;5014366;28;20203;-70
2022/11/06 10:09:51;;;;;;;6.57;4.83;;;14.40;68.80;;;;;;5014469;28;20229;-76
2022/11/06 10:12:28;;;;;;;8.30;5.03;;;14.40;68.00;;;;;;5014806;28;20246;-71
2022/11/06 10:15:04;;;;;;;6.23;4.97;;;14.80;67.90;;;;;;5014816;28;20202;-79
2022/11/06 10:17:43;;;;;;;10.40;4.70;;;15.20;65.90;;;;;;5014146;28;20197;-80
2022/11/06 10:20:18;;;;;;;11.23;6.10;;;15.60;64.30;;;;;;5013968;28;20681;-78
2022/11/06 10:23:03;;;;;;;9.77;5.27;;;15.80;62.90;;;;;;5013749;28;20202;-69
2022/11/06 10:25:50;;;;;;;8.97;5.40;;;16.30;62.50;;;;;;5013461;28;20204;-75
2022/11/06 10:28:45;;;;;;;10.00;5.30;;;16.80;61.40;;;;;;5013629;28;20602;-73
2022/11/06 10:31:21;;;;;;;10.60;6.40;;;17.30;59.90;;;;;;5012102;28;20208;-77
2022/11/06 10:33:56;;;;;;;9.57;5.30;;;17.70;58.60;;;;;;5013627;28;20197;-78
2022/11/06 10:36:31;;;;;;;7.27;4.50;;;18.40;57.30;;;;;;5013350;28;20694;-72
2022/11/06 10:39:03;;;;;;;8.03;4.33;;;18.60;55.20;;;;;;5013012;28;20200;-78
2022/11/06 10:41:36;;;;;;;7.03;4.97;;;18.20;54.30;;;;;;5013447;28;20197;-75
2022/11/06 10:44:12;;;;;;;8.03;5.23;;;17.80;54.70;;;;;;5013401;28;20195;-78
2022/11/06 10:46:46;;;;;;;6.70;4.53;;;17.50;55.20;;;;;;5013451;28;20238;-78
2022/11/06 10:49:25;;;;;;;9.27;5.20;;;17.10;55.50;;;;;;5013298;28;20640;-73
2022/11/06 10:52:16;;;;;;;8.43;5.33;;;17.00;55.90;;;;;;5013668;28;20210;-78
2022/11/06 10:55:03;;;;;;;8.00;4.87;;;17.60;55.50;;;;;;5013323;28;20330;-76
2022/11/06 10:57:40;;;;;;;8.30;5.40;;;18.30;54.40;;;;;;5013436;28;20359;-78
2022/11/06 11:00:12;;;;;;;7.47;4.87;;;18.80;53.40;;;;;;5012773;28;20228;-81
2022/11/06 11:02:46;;;;;;;7.67;4.83;;;18.80;52.20;;;;;;5013312;28;20283;-80
2022/11/06 11:05:16;;;;;;;8.17;4.43;;;18.80;53.10;;;;;;5013249;28;20248;-81
2022/11/06 11:07:47;;;;;;;5.67;4.47;;;18.90;52.60;;;;;;5012945;28;20734;-79
2022/11/06 11:10:32;;;;;;;9.33;5.00;;;18.70;51.80;;;;;;5011718;28;20234;-74
2022/11/06 11:13:02;;;;;;;9.03;4.40;;;18.20;52.40;;;;;;5013008;28;20212;-70
2022/11/06 11:15:43;;;;;;;8.23;4.70;;;17.90;53.10;;;;;;5012720;28;20203;-69
2022/11/06 11:18:20;;;;;;;8.83;5.00;;;17.60;53.30;;;;;;5012716;28;20202;-73
2022/11/06 11:20:50;;;;;;;7.03;4.80;;;17.20;53.90;;;;;;5012609;28;20256;-74
2022/11/06 11:23:20;;;;;;;8.90;4.47;;;16.90;54.60;;;;;;5012850;28;20281;-69
2022/11/06 11:25:52;;;;;;;10.10;4.73;;;16.80;55.00;;;;;;5013138;28;20294;-70
2022/11/06 11:28:26;;;;;;;8.87;4.50;;;16.70;55.20;;;;;;5012882;28;20689;-81
2022/11/06 11:30:58;;;;;;;9.70;4.33;;;16.60;55.20;;;;;;5011503;28;20694;-78
2022/11/06 11:33:27;;;;;;;9.57;4.73;;;16.30;55.60;;;;;;5012647;28;20329;-73
2022/11/06 11:35:55;;;;;;;7.80;4.70;;;16.10;56.00;;;;;;5012841;28;20195;-77
2022/11/06 11:38:25;;;;;;;9.47;4.20;;;16.00;56.30;;;;;;5012894;28;20199;-76
2022/11/06 11:41:06;;;;;;;5.60;4.30;;;15.80;56.20;;;;;;5012431;28;20235;-77
2022/11/06 11:43:35;;;;;;;6.17;3.87;;;15.70;56.90;;;;;;5012605;28;20209;-77
2022/11/06 11:46:12;;;;;;;6.30;4.07;;;15.60;57.10;;;;;;5012744;28;20257;-78
2022/11/06 11:48:45;;;;;;;5.53;3.70;;;15.50;57.30;;;;;;5012939;28;20195;-77
2022/11/06 11:51:20;;;;;;;9.87;4.10;;;15.30;57.90;;;;;;5012708;28;20636;-77
2022/11/06 11:53:49;;;;;;;7.07;4.30;;;15.20;58.20;;;;;;5015976;28;20604;-71
2022/11/06 11:56:21;;;;;;;7.90;4.27;;;15.10;58.50;;;;;;5016075;28;20590;-76
2022/11/06 11:59:17;;;;;;;4.87;4.10;;;15.00;58.90;;;;;;5016212;28;20199;-75
2022/11/06 12:01:45;;;;;;;6.97;4.23;;;14.90;59.40;;;;;;5016106;28;20264;-76
2022/11/06 12:04:19;;;;;;;8.37;4.67;;;14.70;59.40;;;;;;5016136;28;20234;-78
2022/11/06 12:06:56;;;;;;;6.50;4.23;;;14.60;59.90;;;;;;5016083;28;20195;-74
2022/11/06 12:09:26;;;;;;;11.10;4.30;;;14.60;60.00;;;;;;5015890;28;20231;-77
2022/11/06 12:11:59;;;;;;;9.63;4.13;;;14.60;60.20;;;;;;5015992;28;20248;-78
2022/11/06 12:14:36;;;;;;;4.47;3.77;;;14.50;60.10;;;;;;5015894;28;20232;-73
2022/11/06 12:17:18;;;;;;;5.10;3.07;;;14.40;60.80;;;;;;5016259;28;20574;-74
2022/11/06 12:19:51;;;;;;;7.37;3.63;;;14.50;61.00;;;;;;5015954;28;20724;-77
2022/11/06 12:22:26;;;;;;;5.57;3.73;;;14.40;61.00;;;;;;5016126;28;20191;-73
2022/11/06 12:24:59;;;;;;;8.33;4.07;;;14.40;61.10;;;;;;5015841;28;20256;-74
2022/11/06 12:27:34;;;;;;;8.10;4.53;;;14.40;62.00;;;;;;5015631;28;20206;-77
2022/11/06 12:30:05;;;;;;;5.43;3.67;;;14.40;61.30;;;;;;5015488;28;20190;-77
2022/11/06 12:32:48;;;;;;;5.77;3.57;;;14.40;61.30;;;;;;5015383;28;20222;-75
2022/11/06 12:35:24;;;;;;;7.63;3.83;;;14.40;60.90;;;;;;5015653;28;20199;-69
2022/11/06 12:38:04;;;;;;;6.73;3.70;;;14.30;61.00;;;;;;5017472;28;20199;-70
2022/11/06 12:40:37;;;;;;;9.03;3.77;;;14.40;61.20;;;;;;5015284;28;20317;-70
2022/11/06 12:43:18;;;;;;;5.73;3.93;;;14.30;60.80;;;;;;5015050;28;20210;-76
2022/11/06 12:46:10;;;;;;;5.37;3.40;;;14.30;60.70;;;;;;5015840;28;20234;-75
2022/11/06 12:48:59;;;;;;;4.10;3.67;;;14.30;60.70;;;;;;5015455;28;20282;-77
2022/11/06 12:51:38;;;;;;;4.67;3.77;;;14.30;60.80;;;;;;5015211;28;20661;-77
2022/11/06 12:54:32;;;;;;;7.53;3.40;;;14.40;61.10;;;;;;5015121;28;20572;-76
2022/11/06 12:57:12;;;;;;;5.77;4.10;;;14.40;61.20;;;;;;5015035;28;20663;-75
2022/11/06 12:59:52;;;;;;;5.80;4.37;;;14.50;61.20;;;;;;5015132;28;20195;-76
2022/11/06 13:02:37;;;;;;;5.90;3.70;;;14.40;61.50;;;;;;5014796;28;20226;-75
2022/11/06 13:05:12;;;;;;;4.73;3.57;;;14.40;61.60;;;;;;5014599;28;20211;-74
2022/11/06 13:07:54;;;;;;;5.60;3.50;;;14.40;61.60;;;;;;5014610;28;20213;-77
2022/11/06 13:10:32;;;;;;;10.03;4.03;;;14.40;61.70;;;;;;5014643;28;20187;-74
2022/11/06 13:13:14;;;;;;;7.27;4.23;;;14.40;62.10;;;;;;5014529;28;20253;-76
2022/11/06 13:15:53;;;;;;;5.00;3.80;;;14.40;62.20;;;;;;5013591;28;20222;-75
2022/11/06 13:18:25;;;;;;;8.33;4.23;;;14.30;62.40;;;;;;5014475;28;20195;-75
2022/11/06 13:21:00;;;;;;;5.03;4.10;;;14.30;62.50;;;;;;5014563;28;20264;-76
2022/11/06 13:23:33;;;;;;;5.27;4.17;;;14.20;62.70;;;;;;5014803;28;20205;-76
2022/11/06 13:26:06;;;;;;;6.97;3.87;;;14.30;63.00;;;;;;5014285;28;20211;-77
2022/11/06 13:28:40;;;;;;;6.63;4.27;;;14.30;63.00;;;;;;5014374;28;20202;-75